createdAt,value
2023-02-28T00:00:39.346Z,82
2023-02-28T00:05:25.899Z,82
2023-02-28T00:10:28.141Z,83
2023-02-28T00:15:34.317Z,83
2023-02-28T00:20:23.261Z,84
2023-02-28T00:25:29.320Z,84
2023-02-28T00:30:35.643Z,85
2023-02-28T00:35:23.956Z,85
2023-02-28T00:40:32.666Z,86
2023-02-28T00:45:19.392Z,86
2023-02-28T00:50:25.486Z,86
2023-02-28T00:55:31.015Z,86
2023-02-28T01:00:24.460Z,86
2023-02-28T01:05:25.604Z,86
2023-02-28T01:10:32.598Z,86
2023-02-28T01:15:20.237Z,86
2023-02-28T01:20:28.879Z,86
2023-02-28T01:25:32.823Z,86
2023-02-28T01:30:21.689Z,86
2023-02-28T01:35:28.110Z,86
2023-02-28T01:40:34.820Z,86
2023-02-28T01:45:22.668Z,86
2023-02-28T01:50:28.580Z,87
2023-02-28T01:55:35.064Z,87
2023-02-28T02:00:27.140Z,87
2023-02-28T02:05:29.817Z,87
2023-02-28T02:10:20.084Z,87
2023-02-28T02:15:24.848Z,87
2023-02-28T02:20:32.012Z,87
2023-02-28T02:25:20.028Z,87
2023-02-28T02:30:26.827Z,88
2023-02-28T02:35:32.522Z,89
2023-02-28T02:40:21.515Z,90
2023-02-28T02:45:27.651Z,89
2023-02-28T02:50:32.906Z,89
2023-02-28T02:55:21.964Z,89
2023-02-28T03:00:30.852Z,88
2023-02-28T03:05:35.414Z,88
2023-02-28T03:10:23.232Z,88
2023-02-28T03:15:32.286Z,88
2023-02-28T03:20:35.823Z,88
2023-02-28T03:25:24.319Z,88
2023-02-28T03:30:31.221Z,88
2023-02-28T03:35:19.828Z,88
2023-02-28T03:40:26.406Z,88
2023-02-28T03:45:31.472Z,87
2023-02-28T03:50:19.899Z,88
2023-02-28T03:55:26.643Z,88
2023-02-28T04:00:36.145Z,88
2023-02-28T04:05:21.027Z,88
2023-02-28T04:10:31.596Z,88
2023-02-28T04:15:33.815Z,88
2023-02-28T04:20:23.650Z,88
2023-02-28T04:25:27.717Z,88
2023-02-28T04:30:34.278Z,88
2023-02-28T04:35:22.891Z,88
2023-02-28T04:40:29.592Z,88
2023-02-28T04:45:35.136Z,88
2023-02-28T04:50:23.319Z,88
2023-02-28T04:55:30.192Z,88
2023-02-28T05:00:22.241Z,88
2023-02-28T05:05:28.341Z,88
2023-02-28T05:10:35.074Z,88
2023-02-28T05:15:20.188Z,88
2023-02-28T05:20:26.797Z,88
2023-02-28T05:25:33.151Z,87
2023-02-28T05:30:21.491Z,87
2023-02-28T05:35:27.821Z,87
2023-02-28T05:40:36.477Z,88
2023-02-28T05:45:22.565Z,88
2023-02-28T05:50:29.261Z,87
2023-02-28T05:55:34.497Z,87
2023-02-28T06:00:26.718Z,88
2023-02-28T06:05:28.540Z,88
2023-02-28T06:10:35.216Z,88
2023-02-28T06:15:23.795Z,87
2023-02-28T06:20:30.780Z,87
2023-02-28T06:25:18.481Z,87
2023-02-28T06:30:25.152Z,87
2023-02-28T06:35:31.143Z,86
2023-02-28T06:40:20.870Z,85
2023-02-28T06:45:26.020Z,83
2023-02-28T06:50:32.054Z,82
2023-02-28T06:55:20.194Z,81
2023-02-28T07:00:30.543Z,79
2023-02-28T07:05:33.669Z,77
2023-02-28T07:10:22.133Z,76
2023-02-28T07:15:28.392Z,75
2023-02-28T07:20:35.601Z,75
2023-02-28T07:25:22.751Z,74
2023-02-28T07:30:28.824Z,74
2023-02-28T07:35:36.149Z,72
2023-02-28T07:40:25.743Z,71
2023-02-28T07:45:30.581Z,72
2023-02-28T07:50:18.841Z,71
2023-02-28T07:55:25.048Z,71
2023-02-28T08:00:36.660Z,69
2023-02-28T08:05:21.999Z,69
2023-02-28T08:10:30.733Z,68
2023-02-28T08:15:33.372Z,68
2023-02-28T08:20:21.222Z,68
2023-02-28T08:25:26.448Z,67
2023-02-28T08:30:33.168Z,66
2023-02-28T08:35:21.853Z,66
2023-02-28T08:40:27.723Z,64
2023-02-28T08:45:33.787Z,64
2023-02-28T08:50:22.097Z,63
2023-02-28T08:55:28.965Z,63
2023-02-28T09:00:36.845Z,63
2023-02-28T09:05:23.815Z,63
2023-02-28T09:10:30.299Z,62
2023-02-28T09:15:18.999Z,62
2023-02-28T09:20:27.571Z,63
2023-02-28T09:25:31.411Z,62
2023-02-28T09:30:20.233Z,62
2023-02-28T09:35:26.346Z,62
2023-02-28T09:40:33.257Z,62
2023-02-28T09:45:21.071Z,62
2023-02-28T09:50:27.672Z,63
2023-02-28T09:55:41.438Z,62
2023-02-28T10:00:24.961Z,62
2023-02-28T10:05:28.142Z,63
2023-02-28T10:10:33.983Z,63
2023-02-28T10:15:22.589Z,62
2023-02-28T10:20:29.357Z,62
2023-02-28T10:25:35.862Z,63
2023-02-28T10:30:23.869Z,63
2023-02-28T10:35:29.720Z,62
2023-02-28T10:40:19.138Z,62
2023-02-28T10:45:24.869Z,63
2023-02-28T10:50:31.271Z,63
2023-02-28T10:55:19.290Z,63
2023-02-28T11:00:28.904Z,63
2023-02-28T11:05:32.503Z,62
2023-02-28T11:10:22.077Z,61
2023-02-28T11:15:28.494Z,61
2023-02-28T11:20:34.422Z,61
2023-02-28T11:25:21.647Z,60
2023-02-28T11:30:28.300Z,61
2023-02-28T11:35:35.275Z,61
2023-02-28T11:40:23.353Z,61
2023-02-28T11:45:29.417Z,61
2023-02-28T11:50:34.803Z,61
2023-02-28T11:55:23.719Z,61
2023-02-28T12:00:33.840Z,61
2023-02-28T12:05:19.165Z,60
2023-02-28T12:10:26.516Z,61
2023-02-28T12:15:30.756Z,60
2023-02-28T12:20:21.012Z,60
2023-02-28T12:25:26.302Z,60
2023-02-28T12:30:32.622Z,60
2023-02-28T12:35:21.428Z,60
2023-02-28T12:40:29.691Z,60
2023-02-28T12:45:33.394Z,60
2023-02-28T12:50:21.840Z,60
2023-02-28T12:55:28.812Z,60
2023-02-28T13:00:36.473Z,60
2023-02-28T13:05:22.439Z,60
2023-02-28T13:10:29.042Z,60
2023-02-28T13:15:35.245Z,59
2023-02-28T13:20:23.952Z,59
2023-02-28T13:25:29.634Z,59
2023-02-28T13:30:19.108Z,60
2023-02-28T13:35:25.937Z,60
2023-02-28T13:40:31.202Z,60
2023-02-28T13:45:19.836Z,60
2023-02-28T13:50:25.748Z,60
2023-02-28T13:55:32.355Z,59
2023-02-28T14:00:25.691Z,59
2023-02-28T14:05:28.118Z,59
2023-02-28T14:10:37.404Z,59
2023-02-28T14:15:22.540Z,60
2023-02-28T14:20:28.656Z,60
2023-02-28T14:25:35.494Z,60
2023-02-28T14:30:23.453Z,60
2023-02-28T14:35:29.531Z,60
2023-02-28T14:40:38.751Z,60
2023-02-28T14:45:24.459Z,60
2023-02-28T14:50:29.889Z,60
2023-02-28T14:55:19.036Z,60
2023-02-28T15:00:31.297Z,60
2023-02-28T15:05:32.156Z,60
2023-02-28T15:10:23.811Z,60
2023-02-28T15:15:35.893Z,60
2023-02-28T15:20:35.481Z,61
2023-02-28T15:25:21.435Z,61
2023-02-28T15:30:28.465Z,61
2023-02-28T15:35:34.045Z,61
2023-02-28T15:40:23.001Z,62
2023-02-28T15:45:29.499Z,62
2023-02-28T15:50:34.759Z,62
2023-02-28T15:55:22.705Z,62
2023-02-28T16:00:36.251Z,62
2023-02-28T16:05:34.848Z,63
2023-02-28T16:10:23.485Z,63
2023-02-28T16:15:30.419Z,64
2023-02-28T16:20:18.692Z,64
2023-02-28T16:25:24.753Z,65
2023-02-28T16:30:31.045Z,65
2023-02-28T16:35:19.684Z,65
2023-02-28T16:40:27.132Z,66
2023-02-28T16:45:32.755Z,66
2023-02-28T16:50:20.344Z,66
2023-02-28T16:55:26.665Z,67
2023-02-28T17:00:36.048Z,67
2023-02-28T17:05:22.780Z,67
2023-02-28T17:10:29.834Z,67
2023-02-28T17:15:34.516Z,68
2023-02-28T17:20:24.415Z,68
2023-02-28T17:25:29.531Z,69
2023-02-28T17:30:36.165Z,69
2023-02-28T17:35:24.537Z,69
2023-02-28T17:40:30.722Z,70
2023-02-28T17:45:19.137Z,72
2023-02-28T17:50:25.684Z,73
2023-02-28T17:55:31.174Z,74
2023-02-28T18:00:25.641Z,74
2023-02-28T18:05:26.246Z,74
2023-02-28T18:10:40.851Z,75
2023-02-28T18:15:21.052Z,77
2023-02-28T18:20:27.275Z,77
2023-02-28T18:25:33.113Z,77
2023-02-28T18:30:22.859Z,78
2023-02-28T18:36:07.158Z,79
2023-02-28T18:40:34.847Z,80
2023-02-28T18:45:23.262Z,80
2023-02-28T18:50:28.469Z,80
2023-02-28T18:55:37.411Z,81
2023-02-28T19:00:25.879Z,81
2023-02-28T19:05:30.185Z,82
2023-02-28T19:10:22.592Z,82
2023-02-28T19:15:24.978Z,83
2023-02-28T19:20:32.361Z,83
2023-02-28T19:25:20.100Z,84
2023-02-28T19:30:26.502Z,84
2023-02-28T19:35:32.359Z,84
2023-02-28T19:40:22.148Z,85
2023-02-28T19:45:27.722Z,85
2023-02-28T19:50:32.677Z,86
2023-02-28T19:55:20.889Z,86
2023-02-28T20:00:36.827Z,86
2023-02-28T20:05:33.664Z,86
2023-02-28T20:10:24.490Z,86
2023-02-28T20:15:28.660Z,87
2023-02-28T20:20:35.269Z,87
2023-02-28T20:25:23.412Z,87
2023-02-28T20:30:30.434Z,87
2023-02-28T20:35:18.549Z,88
2023-02-28T20:40:25.162Z,88
2023-02-28T20:45:30.701Z,88
2023-02-28T20:50:19.729Z,88
2023-02-28T20:55:26.445Z,89
2023-02-28T21:00:33.716Z,89
2023-02-28T21:05:20.622Z,89
2023-02-28T21:10:32.337Z,89
2023-02-28T21:15:33.453Z,89
2023-02-28T21:20:23.470Z,89
2023-02-28T21:25:27.787Z,89
2023-02-28T21:30:34.382Z,89
2023-02-28T21:35:22.824Z,88
2023-02-28T21:40:29.744Z,87
2023-02-28T21:45:35.683Z,87
2023-02-28T21:50:23.125Z,88
2023-02-28T21:55:29.608Z,88
2023-02-28T22:00:20.395Z,89
2023-02-28T22:05:25.550Z,89
2023-02-28T22:10:35.014Z,89
2023-02-28T22:15:20.158Z,89
2023-02-28T22:20:26.893Z,90
2023-02-28T22:25:33.201Z,90
2023-02-28T22:30:21.867Z,90
2023-02-28T22:35:27.366Z,90
2023-02-28T22:40:35.563Z,90
2023-02-28T22:45:22.703Z,89
2023-02-28T22:50:28.284Z,89
2023-02-28T22:55:34.572Z,88
2023-02-28T23:00:29.399Z,89
2023-02-28T23:05:28.842Z,89
2023-02-28T23:10:39.139Z,90
2023-02-28T23:15:24.544Z,90
2023-02-28T23:20:29.961Z,90
2023-02-28T23:25:18.675Z,91
2023-02-28T23:30:24.666Z,90
2023-02-28T23:35:31.543Z,87
2023-02-28T23:40:21.052Z,84
2023-02-28T23:45:25.905Z,82
2023-02-28T23:50:51.064Z,81
2023-02-28T23:55:20.538Z,81
